Historique des mesures à Cassis (13260), France
Quotidien Résumé Fevrier 12, 2018 Unités:  Métrique    US   Métrique/US
« Précédent (Jour)
Suivant (Jour) »
Quotidien Hebdomadaire Mensuel Annuel Période au choix
  Maximum: Minimum: Moyenne:
Température: -17.8 °C -15.3 °C -13.7 °C
Point de rosée: -17.8 °C -20.6 °C -18.9 °C
Humidité: Humidity % 40 % 49 %
Vitesse du vent: 0 km/h 9.3 km/h 27.4 km/h
Rafales: 0 km/h - -
Vent:- - SW
Pression: 0 hPa 34097 hPa -
Précipitations: 0 mm    
Historical Graphs
 
 
Mesures pour : Fevrier 12, 2018
Heure Temperature Point de rosée Pression Vent Vitesse du vent Rafales Humidité Pluie (par heure) Conditions
-17.8 °C -17.8 °C 0 hPa Calm     Humidity % 0 mm SoftwareType W/m2
00:12 -12.2 °C -17 °C 34107.2 hPa WNW 23.8 km/h 28.5 km/h 55 % 0 mm open2300-1.11 W/m2
01:12 -12.4 °C -17.1 °C 34097 hPa NW 39.9 km/h 64.7 km/h 56 % 0 mm open2300-1.11 W/m2
02:12 -12.7 °C -17.2 °C 34097 hPa NW 24.8 km/h 53.9 km/h 57 % 0 mm open2300-1.11 W/m2
03:12 -12.8 °C -17.3 °C 34120.7 hPa NNW 28.5 km/h 31.9 km/h 57 % 0 mm open2300-1.11 W/m2
04:12 -12.7 °C -17.7 °C 34107.2 hPa NW 34.8 km/h 34.8 km/h 54 % 0 mm open2300-1.11 W/m2
05:12 -12.8 °C -17.7 °C 34120.7 hPa North 40.7 km/h 40.7 km/h 54 % 0 mm open2300-1.11 W/m2
06:12 -13.4 °C -17.5 °C 34120.7 hPa WNW 15 km/h 27.2 km/h 60 % 0 mm open2300-1.11 W/m2
07:12 -13.6 °C -18.1 °C 34144.4 hPa WNW 36.5 km/h 36.5 km/h 57 % 0 mm open2300-1.11 W/m2
08:12 -14.2 °C -18.2 °C 34178.3 hPa WNW 25.4 km/h 31.4 km/h 60 % 0 mm open2300-1.11 W/m2
09:12 -13.9 °C -18.2 °C 34188.4 hPa WNW 26.7 km/h 38.8 km/h 58 % 0 mm open2300-1.11 W/m2
10:12 -13.6 °C -18.4 °C 34188.4 hPa North 38.3 km/h 77.7 km/h 54 % 0 mm open2300-1.11 W/m2
11:12 -13 °C -19.1 °C 34198.6 hPa North 25.4 km/h 49.2 km/h 46 % 0 mm open2300-1.11 W/m2
12:12 -12.9 °C -19.1 °C 34198.6 hPa North 37 km/h 37 km/h 46 % 0 mm open2300-1.11 W/m2
13:12 -13 °C -19.3 °C 34178.3 hPa NNW 23.8 km/h 38.8 km/h 45 % 0 mm open2300-1.11 W/m2
14:12 -12.9 °C -19.7 °C 34154.6 hPa NW 28.5 km/h 44.6 km/h 42 % 0 mm open2300-1.11 W/m2
15:12 -12.9 °C -20.1 °C 34154.6 hPa NNW 42.6 km/h 46.3 km/h 40 % 0 mm open2300-1.11 W/m2
16:12 -13.1 °C -20.1 °C 34144.4 hPa NW 20.3 km/h 28.5 km/h 41 % 0 mm open2300-1.11 W/m2
17:12 -13.4 °C -20.2 °C 34144.4 hPa NNE 13.2 km/h 48.1 km/h 42 % 0 mm open2300-1.11 W/m2
18:12 -14 °C -20.6 °C 34144.4 hPa WNW 49.2 km/h 60.8 km/h 43 % 0 mm open2300-1.11 W/m2
19:12 -14.4 °C -20.4 °C 34144.4 hPa NNW 28.5 km/h 63.7 km/h 46 % 0 mm open2300-1.11 W/m2
20:12 -14.7 °C -20.4 °C 34164.7 hPa NW 38.3 km/h 38.3 km/h 48 % 0 mm open2300-1.11 W/m2
21:12 -14.9 °C -20.2 °C 34188.4 hPa NNE 16.3 km/h 38.8 km/h 50 % 0 mm open2300-1.11 W/m2
22:12 -15.1 °C -20.2 °C 34198.6 hPa North 9.3 km/h 23.8 km/h 52 % 0 mm open2300-1.11 W/m2
23:12 -15.3 °C -20.2 °C 34188.4 hPa NW 17.9 km/h 26.7 km/h 53 % 0 mm open2300-1.11 W/m2
Observations météo à CASSIS
WU-History script by Weather Underground - 1 mb